createdAt,value
2022-09-17T00:01:01.672Z,2.76
2022-09-17T00:03:28.006Z,2.61
2022-09-17T00:05:54.352Z,2.68
2022-09-17T00:08:20.684Z,2.72
2022-09-17T00:10:47.050Z,2.68
2022-09-17T00:13:13.425Z,2.62
2022-09-17T00:15:39.754Z,2.58
2022-09-17T00:18:06.070Z,2.66
2022-09-17T00:20:32.400Z,2.36
2022-09-17T00:22:58.728Z,2.48
2022-09-17T00:25:25.069Z,2.61
2022-09-17T00:27:51.392Z,2.65
2022-09-17T00:30:17.712Z,2.45
2022-09-17T00:32:44.031Z,2.39
2022-09-17T00:35:10.358Z,2.38
2022-09-17T00:37:36.688Z,2.11
2022-09-17T00:40:03.048Z,1.87
2022-09-17T00:42:29.449Z,2.05
2022-09-17T00:44:55.776Z,1.62
2022-09-17T00:47:22.108Z,1.74
2022-09-17T00:49:48.432Z,1.53
2022-09-17T00:52:14.744Z,1.58
2022-09-17T00:54:41.069Z,1.64
2022-09-17T00:57:07.451Z,1.66
2022-09-17T00:59:33.859Z,1.40
2022-09-17T01:02:00.244Z,1.25
2022-09-17T01:04:26.625Z,1.52
2022-09-17T01:06:52.973Z,1.50
2022-09-17T01:09:19.297Z,1.52
2022-09-17T01:11:45.620Z,1.33
2022-09-17T01:14:11.948Z,1.61
2022-09-17T01:16:38.284Z,1.40
2022-09-17T01:19:04.609Z,1.53
2022-09-17T01:21:30.944Z,1.41
2022-09-17T01:23:57.276Z,1.52
2022-09-17T01:26:23.602Z,1.61
2022-09-17T01:28:49.933Z,1.60
2022-09-17T01:31:16.304Z,1.61
2022-09-17T01:33:42.664Z,1.48
2022-09-17T01:36:08.999Z,1.50
2022-09-17T01:38:35.333Z,1.57
2022-09-17T01:41:01.672Z,1.46
2022-09-17T01:43:27.990Z,1.31
2022-09-17T01:45:54.321Z,1.39
2022-09-17T01:48:20.635Z,1.56
2022-09-17T01:50:46.968Z,1.31
2022-09-17T01:53:13.298Z,1.32
2022-09-17T01:55:39.622Z,1.40
2022-09-17T01:58:05.959Z,1.35
2022-09-17T02:00:32.323Z,1.36
2022-09-17T02:02:58.725Z,1.42
2022-09-17T02:05:25.048Z,1.27
2022-09-17T02:07:51.373Z,1.38
2022-09-17T02:10:17.693Z,1.31
2022-09-17T02:12:44.050Z,1.42
2022-09-17T02:15:10.385Z,1.34
2022-09-17T02:17:36.706Z,1.32
2022-09-17T02:20:03.037Z,1.41
2022-09-17T02:22:29.357Z,1.27
2022-09-17T02:24:55.681Z,1.24
2022-09-17T02:27:22.030Z,1.15
2022-09-17T02:29:48.368Z,1.28
2022-09-17T02:32:14.684Z,1.25
2022-09-17T02:34:41.049Z,1.18
2022-09-17T02:37:07.369Z,1.40
2022-09-17T02:39:33.684Z,1.20
2022-09-17T02:42:00.010Z,1.16
2022-09-17T02:44:26.341Z,1.22
2022-09-17T02:46:52.726Z,1.40
2022-09-17T02:49:19.096Z,1.35
2022-09-17T02:51:45.428Z,1.25
2022-09-17T02:54:11.755Z,1.37
2022-09-17T02:56:38.067Z,1.24
2022-09-17T02:59:04.409Z,1.23
2022-09-17T03:01:30.749Z,1.33
2022-09-17T03:03:57.060Z,1.17
2022-09-17T03:06:23.377Z,1.24
2022-09-17T03:08:49.704Z,1.37
2022-09-17T03:11:16.042Z,1.03
2022-09-17T03:13:42.362Z,1.24
2022-09-17T03:16:08.797Z,1.05
2022-09-17T03:18:35.176Z,1.16
2022-09-17T03:21:01.506Z,1.05
2022-09-17T03:23:27.837Z,1.13
2022-09-17T03:25:54.153Z,1.16
2022-09-17T03:28:20.476Z,1.09
2022-09-17T03:30:46.792Z,1.29
2022-09-17T03:33:13.107Z,1.08
2022-09-17T03:35:39.424Z,1.09
2022-09-17T03:38:05.744Z,1.10
2022-09-17T03:40:32.109Z,1.22
2022-09-17T03:42:58.506Z,1.15
2022-09-17T03:45:24.824Z,1.02
2022-09-17T03:47:51.138Z,1.27
2022-09-17T03:50:17.460Z,1.32
2022-09-17T03:52:43.793Z,1.31
2022-09-17T03:55:10.121Z,1.32
2022-09-17T03:57:36.444Z,1.35
2022-09-17T04:00:02.764Z,1.19
2022-09-17T04:02:29.217Z,1.17
2022-09-17T04:04:55.685Z,1.26
2022-09-17T04:07:22.029Z,1.37
2022-09-17T04:09:48.359Z,1.34
2022-09-17T04:12:14.675Z,1.29
2022-09-17T04:14:41.002Z,1.25
2022-09-17T04:17:07.343Z,1.18
2022-09-17T04:19:33.665Z,1.32
2022-09-17T04:21:59.997Z,1.20
2022-09-17T04:24:26.329Z,0.97
2022-09-17T04:26:52.655Z,1.14
2022-09-17T04:29:18.996Z,1.01
2022-09-17T04:31:45.349Z,1.00
2022-09-17T04:34:11.712Z,0.91
2022-09-17T04:36:38.057Z,1.03
2022-09-17T04:39:04.390Z,0.95
2022-09-17T04:41:30.724Z,0.90
2022-09-17T04:43:57.067Z,0.94
2022-09-17T04:46:23.444Z,1.05
2022-09-17T04:48:49.800Z,0.87
2022-09-17T04:51:16.123Z,0.96
2022-09-17T04:53:42.446Z,1.07
2022-09-17T04:56:08.773Z,1.08
2022-09-17T04:58:35.097Z,1.03
2022-09-17T05:01:01.504Z,1.09
2022-09-17T05:03:27.889Z,0.91
2022-09-17T05:05:54.224Z,0.91
2022-09-17T05:08:20.549Z,1.32
2022-09-17T05:10:46.870Z,1.05
2022-09-17T05:13:13.206Z,1.01
2022-09-17T05:15:39.533Z,1.00
2022-09-17T05:18:05.862Z,0.93
2022-09-17T05:20:32.190Z,0.83
2022-09-17T05:22:58.517Z,0.82
2022-09-17T05:25:24.864Z,0.98
2022-09-17T05:27:51.201Z,1.05
2022-09-17T05:30:17.508Z,1.00
2022-09-17T05:32:43.833Z,0.94
2022-09-17T05:35:10.165Z,0.92
2022-09-17T05:37:36.479Z,0.91
2022-09-17T05:40:02.869Z,0.97
2022-09-17T05:42:29.255Z,0.96
2022-09-17T05:44:55.580Z,1.09
2022-09-17T05:47:21.891Z,1.04
2022-09-17T05:49:48.237Z,1.04
2022-09-17T05:52:14.545Z,0.82
2022-09-17T05:54:40.873Z,0.98
2022-09-17T05:57:07.189Z,1.04
2022-09-17T05:59:33.503Z,0.98
2022-09-17T06:01:59.864Z,1.00
2022-09-17T06:04:26.254Z,0.97
2022-09-17T06:06:52.590Z,0.87
2022-09-17T06:09:18.919Z,0.91
2022-09-17T06:11:45.252Z,0.97
2022-09-17T06:14:11.582Z,1.02
2022-09-17T06:16:37.964Z,1.01
2022-09-17T06:19:04.310Z,1.12
2022-09-17T06:21:30.637Z,1.02
2022-09-17T06:23:56.952Z,1.07
2022-09-17T06:26:23.267Z,0.83
2022-09-17T06:28:49.621Z,1.04
2022-09-17T06:31:16.020Z,0.89
2022-09-17T06:33:42.376Z,1.42
2022-09-17T06:36:13.387Z,1.12
2022-09-17T06:38:40.615Z,1.14
2022-09-17T06:41:06.927Z,1.21
2022-09-17T06:43:33.253Z,1.11
2022-09-17T06:45:59.572Z,1.00
2022-09-17T06:48:25.879Z,1.39
2022-09-17T06:50:52.208Z,1.72
2022-09-17T06:53:18.535Z,1.23
2022-09-17T06:55:44.855Z,1.23
2022-09-17T06:58:11.193Z,1.65
2022-09-17T07:00:37.549Z,1.78
2022-09-17T07:03:03.902Z,2.46
2022-09-17T07:05:30.231Z,4.26
2022-09-17T07:07:56.597Z,5.15
2022-09-17T07:10:22.940Z,5.14
2022-09-17T07:12:50.036Z,4.34
2022-09-17T07:15:16.499Z,4.40
2022-09-17T07:17:42.852Z,4.15
2022-09-17T07:20:09.171Z,3.57
2022-09-17T07:22:35.491Z,2.55
2022-09-17T07:25:01.846Z,3.26
2022-09-17T07:27:28.181Z,2.99
2022-09-17T07:29:54.506Z,2.79
2022-09-17T07:32:20.828Z,2.53
2022-09-17T07:34:47.148Z,2.44
2022-09-17T07:37:13.481Z,2.48
2022-09-17T07:39:39.808Z,2.42
2022-09-17T07:42:06.131Z,2.31
2022-09-17T07:44:32.483Z,2.55
2022-09-17T07:46:58.863Z,2.20
2022-09-17T07:49:25.208Z,2.54
2022-09-17T07:51:51.544Z,2.83
2022-09-17T07:54:18.032Z,2.51
2022-09-17T07:56:44.368Z,2.27
2022-09-17T07:59:10.687Z,2.00
2022-09-17T08:01:37.087Z,1.95
2022-09-17T08:04:03.501Z,1.76
2022-09-17T08:06:29.832Z,1.72
2022-09-17T08:08:56.157Z,1.39
2022-09-17T08:14:08.779Z,1.42
2022-09-17T08:16:35.172Z,0.95
2022-09-17T08:19:01.531Z,1.43
2022-09-17T08:21:27.861Z,1.37
2022-09-17T08:23:54.184Z,1.33
2022-09-17T08:26:20.512Z,1.02
2022-09-17T08:28:46.828Z,1.42
2022-09-17T08:31:13.200Z,1.22
2022-09-17T08:33:39.545Z,1.27
2022-09-17T08:36:05.864Z,1.06
2022-09-17T08:38:35.790Z,1.15
2022-09-17T08:41:04.308Z,1.12
2022-09-17T08:43:30.644Z,1.01
2022-09-17T08:45:56.955Z,0.96
2022-09-17T08:48:23.276Z,0.93
2022-09-17T08:50:49.597Z,0.96
2022-09-17T08:53:15.921Z,0.90
2022-09-17T08:55:42.250Z,0.91
2022-09-17T08:58:08.571Z,0.88
2022-09-17T09:00:34.896Z,0.96
2022-09-17T09:03:01.308Z,0.82
2022-09-17T09:05:27.697Z,1.02
2022-09-17T09:07:54.021Z,0.84
2022-09-17T09:10:20.379Z,0.70
2022-09-17T09:12:46.737Z,0.80
2022-09-17T09:15:13.069Z,0.69
2022-09-17T09:17:39.394Z,0.71
2022-09-17T09:20:05.726Z,0.73
2022-09-17T09:22:32.065Z,0.70
2022-09-17T09:24:58.382Z,0.76
2022-09-17T09:27:24.722Z,0.81
2022-09-17T09:29:51.049Z,0.84
2022-09-17T09:32:17.358Z,0.77
2022-09-17T09:34:43.679Z,0.57
2022-09-17T09:37:10.000Z,0.57
2022-09-17T09:39:41.244Z,0.81
2022-09-17T09:42:08.952Z,0.63
2022-09-17T09:44:35.276Z,0.85
2022-09-17T09:47:01.716Z,0.59
2022-09-17T09:49:28.151Z,0.67
2022-09-17T09:51:54.472Z,0.64
2022-09-17T09:54:20.800Z,0.66
2022-09-17T09:56:47.120Z,0.73
2022-09-17T09:59:13.444Z,0.63
2022-09-17T10:01:39.868Z,0.54
2022-09-17T10:04:06.287Z,0.67
2022-09-17T10:06:32.622Z,0.55
2022-09-17T10:08:58.945Z,0.65
2022-09-17T10:11:25.259Z,0.56
2022-09-17T10:13:51.590Z,0.52
2022-09-17T10:16:18.083Z,0.51
2022-09-17T10:18:44.505Z,0.67
2022-09-17T10:21:10.819Z,0.57
2022-09-17T10:23:37.148Z,0.61
2022-09-17T10:26:03.482Z,0.66
2022-09-17T10:28:29.818Z,0.59
2022-09-17T10:30:56.178Z,0.57
2022-09-17T10:33:22.521Z,0.61
2022-09-17T10:35:48.846Z,0.58
2022-09-17T10:38:15.177Z,0.66
2022-09-17T10:40:41.487Z,0.78
2022-09-17T10:43:07.806Z,0.69
2022-09-17T10:45:34.128Z,0.63
2022-09-17T10:48:00.452Z,0.66
2022-09-17T10:50:26.777Z,0.61
2022-09-17T10:52:53.095Z,0.72
2022-09-17T10:55:19.403Z,0.57
2022-09-17T10:57:45.727Z,0.59
2022-09-17T11:00:12.052Z,0.59
2022-09-17T11:02:38.502Z,0.66
2022-09-17T11:05:04.898Z,0.55
2022-09-17T11:07:31.224Z,0.55
2022-09-17T11:09:57.548Z,0.59
2022-09-17T11:12:23.860Z,0.59
2022-09-17T11:14:50.182Z,0.62
2022-09-17T11:17:16.501Z,0.49
2022-09-17T11:19:42.815Z,0.59
2022-09-17T11:22:09.145Z,0.54
2022-09-17T11:24:35.473Z,0.60
2022-09-17T11:27:01.801Z,0.60
2022-09-17T11:29:28.137Z,0.55
2022-09-17T11:31:54.532Z,0.62
2022-09-17T11:34:20.917Z,0.63
2022-09-17T11:36:47.250Z,0.81
2022-09-17T11:39:13.565Z,0.59
2022-09-17T11:41:39.871Z,0.59
2022-09-17T11:44:06.191Z,0.56
2022-09-17T11:46:32.553Z,0.59
2022-09-17T11:48:58.904Z,0.73
2022-09-17T11:51:25.245Z,0.68
2022-09-17T11:53:51.562Z,0.66
2022-09-17T11:56:17.884Z,0.74
2022-09-17T11:58:44.221Z,0.63
2022-09-17T12:01:10.540Z,0.62
2022-09-17T12:03:36.857Z,0.56
2022-09-17T12:06:03.178Z,0.70
2022-09-17T12:08:29.517Z,0.74
2022-09-17T12:10:55.845Z,0.73
2022-09-17T12:13:22.174Z,0.75
2022-09-17T12:15:52.960Z,0.61
2022-09-17T12:18:31.584Z,0.56
2022-09-17T12:20:58.382Z,0.87
2022-09-17T12:23:24.705Z,0.68
2022-09-17T12:25:51.034Z,0.64
2022-09-17T12:28:17.361Z,0.73
2022-09-17T12:30:43.679Z,0.65
2022-09-17T12:33:09.995Z,0.78
2022-09-17T12:36:02.579Z,0.66
2022-09-17T12:38:22.631Z,0.66
2022-09-17T12:40:48.952Z,0.69
2022-09-17T12:43:15.282Z,0.63
2022-09-17T12:45:41.609Z,0.68
2022-09-17T12:48:07.916Z,0.69
2022-09-17T12:50:34.233Z,0.75
2022-09-17T12:53:00.579Z,0.68
2022-09-17T12:55:26.900Z,0.68
2022-09-17T12:57:53.224Z,0.69
2022-09-17T13:00:19.549Z,0.78
2022-09-17T13:02:45.873Z,0.97
2022-09-17T13:05:12.188Z,0.68
2022-09-17T13:07:38.522Z,0.83
2022-09-17T13:10:04.851Z,0.89
2022-09-17T13:12:31.183Z,0.77
2022-09-17T13:14:57.493Z,0.91
2022-09-17T13:17:23.813Z,0.85
2022-09-17T13:19:50.189Z,0.78
2022-09-17T13:22:16.509Z,0.77
2022-09-17T13:24:47.014Z,0.79
2022-09-17T13:27:13.548Z,0.82
2022-09-17T13:29:39.870Z,0.91
2022-09-17T13:32:06.221Z,0.87
2022-09-17T13:34:32.545Z,0.82
2022-09-17T13:36:58.869Z,0.87
2022-09-17T13:39:25.194Z,0.75
2022-09-17T13:41:51.511Z,0.95
2022-09-17T13:44:17.841Z,0.73
2022-09-17T13:46:44.206Z,0.74
2022-09-17T13:49:10.578Z,0.71
2022-09-17T13:51:36.897Z,0.68
2022-09-17T13:54:03.225Z,0.86
2022-09-17T13:56:29.552Z,0.74
2022-09-17T13:58:55.881Z,0.80
2022-09-17T14:01:22.299Z,0.74
2022-09-17T14:03:48.627Z,0.82
2022-09-17T14:06:14.975Z,0.92
2022-09-17T14:08:41.421Z,0.91
2022-09-17T14:11:07.749Z,0.93
2022-09-17T14:13:34.068Z,0.95
2022-09-17T14:16:00.444Z,0.84
2022-09-17T14:18:26.796Z,0.97
2022-09-17T14:20:53.133Z,0.92
2022-09-17T14:23:19.457Z,0.90
2022-09-17T14:25:45.775Z,0.86
2022-09-17T14:28:12.108Z,0.86
2022-09-17T14:30:38.423Z,0.70
2022-09-17T14:33:04.747Z,0.90
2022-09-17T14:35:31.082Z,0.85
2022-09-17T14:37:57.412Z,0.85
2022-09-17T14:40:23.794Z,0.89
2022-09-17T14:42:50.183Z,0.88
2022-09-17T14:45:16.509Z,0.81
2022-09-17T14:47:42.820Z,0.75
2022-09-17T14:50:09.140Z,0.75
2022-09-17T14:52:35.462Z,0.85
2022-09-17T14:55:01.801Z,0.77
2022-09-17T14:57:28.124Z,0.72
2022-09-17T14:59:54.445Z,0.77
2022-09-17T15:02:20.770Z,0.81
2022-09-17T15:04:47.092Z,0.81
2022-09-17T15:07:13.438Z,0.74
2022-09-17T15:09:39.752Z,0.75
2022-09-17T15:12:06.071Z,0.65
2022-09-17T15:14:32.391Z,0.64
2022-09-17T15:16:58.741Z,0.91
2022-09-17T15:19:25.061Z,0.76
2022-09-17T15:21:51.384Z,0.82
2022-09-17T15:24:17.715Z,0.84
2022-09-17T15:26:44.037Z,0.67
2022-09-17T15:29:10.347Z,0.73
2022-09-17T15:31:36.740Z,0.71
2022-09-17T15:34:03.164Z,0.75
2022-09-17T15:36:29.683Z,0.68
2022-09-17T15:38:56.039Z,0.59
2022-09-17T15:41:22.367Z,0.72
2022-09-17T15:43:48.832Z,0.78
2022-09-17T15:46:15.222Z,0.74
2022-09-17T15:48:41.563Z,0.61
2022-09-17T15:51:07.889Z,0.71
2022-09-17T15:53:34.212Z,0.61
2022-09-17T15:56:00.531Z,0.74
2022-09-17T15:58:26.866Z,0.74
2022-09-17T16:00:53.179Z,0.81
2022-09-17T16:03:19.505Z,0.73
2022-09-17T16:05:45.838Z,0.64
2022-09-17T16:08:12.166Z,0.66
2022-09-17T16:10:38.487Z,0.59
2022-09-17T16:13:04.821Z,0.68
2022-09-17T16:15:31.144Z,0.76
2022-09-17T16:17:57.469Z,0.67
2022-09-17T16:20:23.839Z,0.71
2022-09-17T16:22:51.243Z,0.80
2022-09-17T16:25:17.553Z,0.78
2022-09-17T16:27:43.887Z,0.73
2022-09-17T16:30:10.208Z,0.85
2022-09-17T16:32:36.526Z,0.69
2022-09-17T16:35:02.850Z,0.71
2022-09-17T16:37:29.173Z,0.79
2022-09-17T16:39:55.527Z,0.78
2022-09-17T16:42:21.854Z,0.74
2022-09-17T16:44:48.175Z,0.83
2022-09-17T16:47:14.506Z,0.82
2022-09-17T16:49:40.820Z,1.02
2022-09-17T16:52:07.144Z,0.85
2022-09-17T16:54:33.468Z,0.90
2022-09-17T16:56:59.793Z,0.91
2022-09-17T16:59:26.122Z,0.79
2022-09-17T17:01:52.448Z,0.83
2022-09-17T17:04:18.780Z,0.99
2022-09-17T17:06:45.104Z,0.87
2022-09-17T17:09:11.424Z,0.85
2022-09-17T17:11:37.757Z,0.89
2022-09-17T17:14:04.083Z,0.84
2022-09-17T17:16:30.441Z,1.29
2022-09-17T17:18:56.799Z,0.90
2022-09-17T17:21:23.119Z,0.87
2022-09-17T17:23:49.449Z,0.84
2022-09-17T17:26:15.776Z,0.99
2022-09-17T17:28:42.101Z,0.74
2022-09-17T17:31:08.446Z,0.87
2022-09-17T17:33:34.787Z,0.87
2022-09-17T17:36:05.346Z,0.92
2022-09-17T17:38:33.770Z,0.90
2022-09-17T17:41:00.098Z,0.68
2022-09-17T17:43:26.419Z,0.81
2022-09-17T17:45:52.758Z,0.83
2022-09-17T17:48:19.079Z,0.97
2022-09-17T17:50:45.400Z,0.87
2022-09-17T17:53:11.704Z,0.88
2022-09-17T17:55:38.026Z,0.70
2022-09-17T17:58:04.344Z,0.80
2022-09-17T18:00:30.682Z,0.87
2022-09-17T18:02:57.072Z,0.84
2022-09-17T18:05:23.444Z,0.78
2022-09-17T18:07:49.768Z,0.89
2022-09-17T18:10:16.117Z,0.83
2022-09-17T18:12:42.436Z,0.87
2022-09-17T18:15:08.764Z,0.85
2022-09-17T18:17:35.072Z,0.69
2022-09-17T18:20:01.396Z,0.79
2022-09-17T18:22:27.736Z,0.76
2022-09-17T18:24:54.065Z,0.88
2022-09-17T18:27:20.394Z,0.92
2022-09-17T18:29:46.724Z,0.88
2022-09-17T18:32:13.053Z,0.92
2022-09-17T18:34:39.389Z,0.81
2022-09-17T18:37:05.718Z,0.76
2022-09-17T18:42:18.398Z,0.79
2022-09-17T18:44:44.733Z,0.80
2022-09-17T18:47:11.076Z,0.77
2022-09-17T18:49:37.392Z,0.92
2022-09-17T18:52:03.707Z,0.82
2022-09-17T18:54:30.015Z,0.77
2022-09-17T18:56:56.342Z,0.89
2022-09-17T18:59:22.673Z,0.81
2022-09-17T19:01:49.101Z,0.74
2022-09-17T19:04:15.484Z,0.80
2022-09-17T19:06:41.808Z,0.80
2022-09-17T19:09:08.147Z,0.84
2022-09-17T19:11:34.464Z,0.98
2022-09-17T19:14:00.808Z,0.82
2022-09-17T19:16:27.233Z,0.78
2022-09-17T19:18:53.581Z,0.82
2022-09-17T19:21:19.896Z,0.91
2022-09-17T19:23:46.214Z,0.78
2022-09-17T19:26:12.536Z,0.86
2022-09-17T19:28:38.853Z,0.86
2022-09-17T19:31:05.259Z,0.84
2022-09-17T19:33:31.676Z,0.93
2022-09-17T19:35:58.002Z,0.85
2022-09-17T19:38:24.321Z,0.73
2022-09-17T19:40:50.641Z,0.88
2022-09-17T19:43:16.973Z,0.97
2022-09-17T19:45:43.302Z,0.77
2022-09-17T19:48:09.638Z,0.86
2022-09-17T19:50:35.999Z,1.00
2022-09-17T19:53:02.325Z,1.08
2022-09-17T19:55:28.653Z,0.95
2022-09-17T19:57:54.986Z,0.88
2022-09-17T20:00:21.316Z,0.92
2022-09-17T20:02:47.733Z,0.92
2022-09-17T20:05:14.114Z,0.83
2022-09-17T20:07:40.432Z,1.10
2022-09-17T20:10:06.774Z,1.02
2022-09-17T20:12:33.088Z,1.13
2022-09-17T20:14:59.411Z,1.05
2022-09-17T20:17:25.741Z,1.03
2022-09-17T20:19:52.078Z,1.02
2022-09-17T20:22:18.401Z,0.95
2022-09-17T20:24:48.881Z,0.90
2022-09-17T20:27:17.161Z,1.05
2022-09-17T20:29:43.468Z,1.01
2022-09-17T20:32:09.800Z,1.08
2022-09-17T20:34:36.129Z,1.10
2022-09-17T20:37:13.705Z,1.26
2022-09-17T20:39:40.280Z,0.90
2022-09-17T20:42:06.608Z,0.92
2022-09-17T20:44:32.939Z,0.93
2022-09-17T20:46:59.298Z,0.97
2022-09-17T20:49:25.705Z,0.99
2022-09-17T20:51:52.031Z,1.01
2022-09-17T20:54:18.362Z,1.10
2022-09-17T20:56:44.687Z,1.10
2022-09-17T20:59:11.011Z,1.03
2022-09-17T21:01:37.575Z,0.95
2022-09-17T21:04:04.235Z,1.05
2022-09-17T21:06:30.623Z,1.10
2022-09-17T21:08:56.958Z,1.02
2022-09-17T21:11:23.276Z,1.02
2022-09-17T21:13:49.611Z,0.89
2022-09-17T21:16:16.029Z,0.95
2022-09-17T21:18:42.437Z,0.97
2022-09-17T21:21:08.754Z,1.02
2022-09-17T21:23:35.081Z,1.07
2022-09-17T21:26:01.403Z,1.06
2022-09-17T21:28:27.734Z,1.14
2022-09-17T21:30:54.111Z,1.05
2022-09-17T21:33:20.447Z,1.04
2022-09-17T21:35:46.768Z,1.02
2022-09-17T21:38:13.084Z,1.00
2022-09-17T21:40:40.781Z,0.96
2022-09-17T21:43:08.639Z,1.06
2022-09-17T21:45:34.974Z,1.15
2022-09-17T21:48:01.305Z,1.03
2022-09-17T21:50:27.623Z,1.17
2022-09-17T21:52:53.950Z,1.05
2022-09-17T21:55:20.250Z,1.07
2022-09-17T21:57:46.574Z,1.03
2022-09-17T22:00:12.891Z,1.23
2022-09-17T22:02:39.273Z,0.93
2022-09-17T22:05:05.613Z,1.08
2022-09-17T22:07:31.936Z,0.98
2022-09-17T22:09:58.247Z,1.20
2022-09-17T22:12:24.574Z,1.02
2022-09-17T22:14:50.908Z,1.17
2022-09-17T22:17:17.237Z,1.13
2022-09-17T22:19:43.569Z,1.09
2022-09-17T22:22:09.884Z,1.03
2022-09-17T22:24:36.201Z,1.08
2022-09-17T22:27:02.526Z,1.16
2022-09-17T22:29:28.844Z,1.01
2022-09-17T22:31:55.170Z,0.91
2022-09-17T22:34:21.487Z,1.02
2022-09-17T22:36:47.814Z,1.12
2022-09-17T22:39:14.132Z,1.06
2022-09-17T22:41:40.464Z,1.11
2022-09-17T22:44:06.786Z,0.85
2022-09-17T22:46:33.152Z,1.14
2022-09-17T22:48:59.556Z,1.15
2022-09-17T22:51:25.882Z,1.07
2022-09-17T22:53:52.203Z,1.16
2022-09-17T22:56:18.528Z,1.06
2022-09-17T22:58:44.852Z,1.09
2022-09-17T23:01:11.261Z,1.07
2022-09-17T23:03:37.649Z,1.13
2022-09-17T23:06:03.964Z,0.86
2022-09-17T23:08:30.284Z,1.14
2022-09-17T23:10:56.603Z,1.10
2022-09-17T23:13:22.919Z,1.17
2022-09-17T23:15:49.321Z,1.26
2022-09-17T23:18:15.710Z,1.12
2022-09-17T23:20:42.024Z,1.08
2022-09-17T23:23:08.346Z,1.21
2022-09-17T23:25:34.657Z,1.13
2022-09-17T23:28:00.969Z,1.06
2022-09-17T23:30:27.292Z,1.25
2022-09-17T23:32:53.617Z,1.22
2022-09-17T23:35:19.932Z,1.21
2022-09-17T23:37:46.242Z,1.10
2022-09-17T23:40:12.616Z,1.01
2022-09-17T23:42:39.021Z,1.11
2022-09-17T23:45:05.345Z,0.89
2022-09-17T23:47:31.677Z,0.97
2022-09-17T23:49:58.007Z,1.09
2022-09-17T23:52:24.325Z,1.04
2022-09-17T23:54:51.270Z,1.26
2022-09-17T23:57:19.654Z,1.21
2022-09-17T23:59:45.990Z,1.04
